Date,TemperatureHighF,TemperatureAvgF,TemperatureLowF,DewpointHighF,DewpointAvgF,DewpointLowF,HumidityHigh,HumidityAvg,HumidityLow,PressureMaxIn,PressureMinIn,WindSpeedMaxMPH,WindSpeedAvgMPH,GustSpeedMaxMPH,PrecipitationSumIn
2013-1-1,51.7,48.0,44.2,50.4,37.4,29.1,96,69,50,30.16,29.99,12,2,12,0.21
2013-1-2,51.0,45.3,40.3,49.9,42.6,38.1,96,90,79,30.25,29.96,13,3,13,0.30
2013-1-3,44.9,41.0,34.4,38.4,36.8,32.8,95,85,68,30.32,30.18,10,2,10,0.00
2013-1-4,50.9,39.6,29.8,33.3,27.4,22.9,96,66,34,30.37,30.25,11,3,15,0.00
2013-1-5,51.9,40.5,28.9,29.0,25.4,22.6,79,56,35,30.45,30.32,9,2,9,0.00
2013-1-6,48.5,43.5,37.3,41.5,36.3,28.7,96,76,55,30.32,30.11,5,1,7,0.01
2013-1-7,53.3,43.0,34.9,35.1,32.7,30.9,91,68,46,30.49,30.23,12,2,16,0.00
2013-1-8,57.4,45.4,34.7,43.0,37.1,31.6,91,73,52,30.52,30.42,8,1,8,0.00
2013-1-9,68.1,54.2,40.9,52.1,46.4,38.1,92,76,54,30.50,30.40,10,1,10,0.00
2013-1-10,62.9,55.6,50.1,50.8,48.6,37.6,90,78,56,30.57,30.45,18,2,18,0.00
2013-1-11,53.1,48.6,41.7,51.8,44.0,32.7,97,85,53,30.48,30.20,15,2,15,0.33
2013-1-12,73.7,58.5,49.7,64.5,56.0,48.9,98,92,72,30.22,30.14,9,1,9,0.01
2013-1-13,75.5,63.3,53.8,62.9,58.3,53.0,97,85,61,30.18,30.09,13,2,13,0.01
2013-1-14,72.8,65.1,57.4,63.9,60.4,55.8,95,85,73,30.19,30.10,8,2,10,0.00
2013-1-15,64.4,48.7,45.5,60.9,47.3,44.2,97,95,85,30.26,30.09,17,6,17,0.00
2013-1-16,50.7,47.4,44.6,49.9,46.6,43.8,98,97,97,30.11,30.02,8,2,8,0.20
2013-1-17,52.0,47.2,33.9,51.5,46.3,33.1,98,97,94,30.20,29.92,38,7,38,0.62
2013-1-18,46.6,37.3,30.7,36.5,29.8,22.9,98,78,40,30.60,30.18,10,2,11,0.06
2013-1-19,55.7,42.3,29.0,37.4,29.0,25.3,91,62,34,30.57,30.21,11,2,11,0.00
2013-1-20,64.8,51.1,41.2,37.7,34.4,29.9,73,55,32,30.21,30.02,16,3,16,0.00
2013-1-21,60.4,48.5,34.3,33.1,30.0,20.7,84,51,31,30.12,29.92,15,3,15,0.00
2013-1-22,43.6,35.2,28.0,22.9,9.2,-2.3,62,35,17,30.34,30.00,16,4,16,0.00
2013-1-23,41.5,30.9,20.4,19.0,11.2,3.2,79,45,29,30.45,30.12,16,2,16,0.00
2013-1-24,37.2,32.9,25.0,28.3,16.3,3.8,73,52,26,30.57,30.02,25,6,25,0.00
2013-1-25,27.1,24.5,20.7,25.1,15.2,5.4,92,70,43,30.59,30.18,9,1,9,0.00
2013-1-26,42.9,30.9,25.3,33.4,28.3,23.7,96,90,60,30.47,30.16,9,1,9,0.27
2013-1-27,41.7,32.7,27.1,29.4,27.7,25.5,96,83,59,30.66,30.45,15,2,15,0.01
2013-1-28,53.7,43.2,33.4,49.4,37.0,28.2,90,79,68,30.58,30.29,11,2,11,0.05
2013-1-29,73.8,60.0,48.7,58.7,52.8,45.6,92,78,55,30.30,30.11,16,4,16,0.00
2013-1-30,67.3,62.7,59.7,63.0,60.4,56.8,95,92,86,30.11,29.94,23,5,23,0.00
2013-2-2,45.6,35.2,20.7,37.5,15.5,7.9,85,47,26,30.47,30.09,18,3,25,0.00
2013-2-3,50.1,43.1,35.9,36.9,31.9,25.8,90,67,42,30.09,29.90,12,4,18,0.19
2013-2-4,49.1,38.9,27.9,27.9,24.7,21.6,87,58,36,30.20,30.03,10,2,10,0.00
2013-2-5,62.2,48.5,37.3,39.3,34.0,27.9,81,59,37,30.08,29.92,17,3,17,0.00
2013-2-6,64.1,50.9,39.1,36.8,31.0,22.4,81,50,22,30.32,30.01,14,3,14,0.00
2013-2-7,48.5,43.2,37.9,43.1,38.8,34.4,95,85,68,30.36,30.01,19,7,19,0.28
2013-2-8,55.4,44.4,40.3,46.3,41.4,29.4,95,90,57,30.10,29.83,19,8,24,0.43
2013-2-9,53.9,42.6,33.7,30.2,24.0,17.6,81,51,25,30.41,30.09,16,3,16,0.00
2013-2-10,54.4,42.4,30.4,41.2,24.3,19.7,85,50,28,30.54,30.26,10,3,10,0.03
2013-2-11,49.0,46.9,45.4,46.5,43.9,41.2,91,89,85,30.26,30.20,7,2,7,0.03
2013-2-12,61.3,54.9,47.2,53.8,38.3,27.0,94,58,28,30.12,29.94,9,3,13,0.00
2013-2-13,50.9,46.6,44.2,47.2,43.7,36.0,96,90,57,30.00,29.65,16,3,16,0.09
2013-2-14,51.1,43.2,35.1,38.0,34.0,30.7,90,71,50,30.12,29.87,8,2,10,0.00
2013-2-15,62.4,47.8,33.2,39.9,34.2,30.9,92,63,32,30.14,29.97,10,1,10,0.00
2013-2-16,47.9,37.3,31.3,36.6,32.6,26.2,95,84,62,30.00,29.86,12,4,12,0.16
2013-2-17,39.2,31.1,26.1,26.2,15.5,8.4,81,54,28,30.35,29.97,23,4,23,0.00
2013-2-18,51.9,36.9,20.8,26.6,18.5,10.3,89,51,26,30.48,30.32,12,2,12,0.01
2013-2-19,53.3,44.0,35.1,50.3,39.1,26.4,94,83,64,30.32,29.91,18,5,18,0.07
2013-2-20,53.2,43.3,34.5,41.5,21.3,14.4,91,44,23,30.18,30.01,17,3,17,0.00
2013-2-21,56.9,42.6,27.6,23.5,19.3,15.2,82,42,20,30.30,30.16,13,3,15,0.00
2013-2-22,43.6,36.2,32.9,35.8,31.2,22.8,96,83,44,30.40,30.18,15,4,16,0.47
2013-2-23,43.8,40.1,36.6,42.7,39.1,35.6,96,96,95,30.18,29.88,10,2,10,0.78
2013-2-24,63.5,46.7,43.2,47.2,41.5,26.8,97,86,29,30.08,29.83,15,2,15,0.02
2013-2-25,47.8,38.9,34.2,30.0,25.2,21.1,69,58,45,30.28,30.08,29,6,29,0.00
2013-2-26,60.9,44.2,36.3,60.0,40.2,26.8,97,86,65,30.18,29.60,27,10,32,1.03
2013-2-27,59.6,49.8,43.1,46.1,41.2,37.1,96,74,50,29.84,29.67,24,5,24,0.00
2013-2-28,50.0,44.1,38.6,39.7,32.8,27.2,90,66,42,29.90,29.74,13,3,15,0.00
2013-3-1,48.4,41.1,32.1,31.9,29.1,27.3,83,63,44,29.96,29.88,16,3,16,0.00
2013-3-2,47.9,39.7,30.7,30.2,26.8,20.8,89,61,43,29.97,29.85,14,2,14,0.00
2013-3-3,46.2,36.2,28.3,23.7,20.9,18.5,74,55,38,30.03,29.89,18,3,18,0.00
2013-3-4,51.4,37.8,26.0,21.8,17.9,13.6,75,47,24,30.17,30.02,17,2,17,0.00
2013-3-5,49.7,44.6,38.6,45.4,34.1,18.2,96,70,38,30.13,29.60,18,3,18,0.33
2013-3-6,50.3,43.6,38.6,48.7,33.7,26.1,97,69,50,30.06,29.54,21,7,24,0.00
2013-3-7,52.2,42.7,35.1,32.6,29.9,26.8,79,61,45,30.28,30.06,16,4,16,0.00
2013-3-8,55.7,44.1,31.4,29.7,26.4,23.2,80,52,31,30.33,30.19,20,5,20,0.00
2013-3-9,63.2,49.0,36.2,31.6,28.4,26.4,70,47,26,30.38,30.27,13,3,13,0.00
2013-3-10,68.1,54.0,40.4,32.4,26.6,17.8,69,39,17,30.37,30.25,10,2,10,0.00
2013-3-11,68.8,56.5,41.7,54.7,44.7,25.4,88,66,37,30.29,29.97,18,3,18,0.00
2013-3-12,72.2,62.9,52.1,62.0,57.2,33.5,95,83,46,29.99,29.77,22,5,22,0.35
2013-3-13,57.4,48.3,37.6,34.0,27.8,20.3,83,47,26,30.17,29.96,30,5,30,0.00
2013-3-14,53.5,41.3,30.6,26.2,19.8,17.3,63,43,26,30.30,30.15,16,4,19,0.00
2013-3-15,62.1,48.2,31.4,35.9,27.7,20.5,73,46,32,30.24,29.95,21,4,21,0.00
2013-3-16,78.5,64.3,51.1,48.8,44.0,35.6,64,49,34,29.95,29.70,23,5,23,0.00
2013-3-17,67.1,54.7,42.2,53.1,44.5,38.1,94,71,43,30.20,29.86,25,7,25,0.00
2013-3-18,44.7,41.1,38.3,42.7,39.6,36.7,96,94,89,30.24,29.93,20,5,20,0.21
2013-3-19,67.7,52.4,41.5,48.2,35.6,14.9,97,63,20,30.05,29.86,25,4,25,0.02
2013-3-20,56.2,48.4,42.6,24.7,15.1,8.9,48,27,20,30.16,29.82,13,3,13,0.00
2013-3-21,45.9,40.6,31.9,31.3,20.0,11.7,72,45,28,30.02,29.76,16,5,19,0.00
2013-3-22,52.4,34.1,25.9,23.1,14.8,12.3,65,46,23,30.14,30.02,21,3,21,0.00
2013-3-23,56.1,46.7,41.0,32.1,25.7,21.0,63,44,33,30.10,29.95,8,2,8,0.00
2013-3-24,44.1,39.9,36.4,38.6,35.1,29.3,94,84,62,29.99,29.60,25,6,25,0.36
2013-3-25,47.6,41.0,36.3,37.9,31.2,23.3,96,72,40,29.87,29.60,21,5,23,0.00
2013-3-26,49.1,42.4,35.1,30.0,27.7,25.5,72,56,45,30.16,29.87,16,4,16,0.00
2013-3-27,52.7,42.7,33.5,29.2,25.4,21.1,79,53,31,30.28,30.16,22,4,22,0.00
2013-3-28,56.8,44.4,32.0,29.3,25.4,23.7,77,50,29,30.34,30.20,15,4,15,0.00
2013-3-29,60.2,45.8,34.0,31.5,27.0,24.0,83,51,26,30.38,30.23,13,2,20,0.00
2013-3-30,65.0,55.4,45.7,45.3,37.8,28.5,72,52,40,30.28,30.13,7,2,7,0.00
2013-3-31,68.8,57.5,48.1,56.7,50.9,42.4,95,79,63,30.15,29.84,23,4,23,0.30
2013-4-1,72.5,61.9,55.6,55.1,47.6,38.5,96,65,30,29.97,29.84,21,3,21,0.11
2013-4-2,60.8,51.5,42.7,40.5,30.3,25.8,71,46,29,30.19,29.97,12,4,16,0.00
2013-4-3,61.7,51.0,43.3,32.7,21.9,16.8,53,33,22,30.33,30.16,17,5,17,0.00
2013-4-4,50.6,44.0,39.1,39.8,31.8,22.8,95,65,35,30.39,29.94,26,8,26,0.79
2013-4-5,65.0,48.9,40.0,48.0,43.3,38.4,96,83,53,30.06,29.91,16,3,16,0.02
2013-4-6,65.9,54.7,46.5,45.8,34.0,23.0,91,49,28,30.32,30.06,22,5,22,0.00
2013-4-7,72.2,56.5,37.7,49.6,40.2,33.8,90,58,34,30.33,30.15,18,3,18,0.00
2013-4-8,78.9,66.1,53.8,57.4,53.4,49.6,95,67,41,30.22,30.08,17,4,17,0.00
2013-4-9,84.3,71.1,58.2,60.5,57.9,55.7,95,66,40,30.22,30.08,17,4,17,0.00
2013-4-10,86.8,69.4,62.4,62.4,59.4,58.1,88,72,40,30.13,29.96,16,4,16,0.00
2013-4-11,82.0,71.6,61.6,67.5,61.3,58.2,94,72,47,30.02,29.82,15,4,19,0.00
2013-4-12,81.3,72.4,66.4,69.4,65.2,50.2,95,80,47,29.85,29.64,16,6,21,0.46
2013-4-13,76.0,65.4,55.4,50.6,42.1,38.6,58,44,27,30.03,29.78,18,3,18,0.00
2013-4-14,80.0,66.7,51.0,53.0,45.8,36.8,88,52,23,30.13,30.03,13,2,13,0.00
2013-4-15,71.0,65.7,60.9,59.0,56.5,50.3,88,73,57,30.23,30.03,22,4,22,0.01
2013-4-16,78.3,66.2,58.2,61.7,58.7,56.6,96,78,51,30.33,30.22,10,2,10,0.00
2013-4-17,82.1,70.6,59.0,65.0,62.0,57.9,97,76,55,30.27,30.13,11,2,11,0.00
2013-4-18,80.3,70.2,60.8,63.1,60.6,58.3,94,73,53,30.22,30.06,13,3,13,0.00
2013-4-19,83.3,71.7,65.2,68.7,65.6,62.1,95,83,58,30.08,29.75,28,5,28,0.59
2013-4-20,65.1,56.5,49.4,63.6,42.2,33.6,95,61,33,30.31,29.86,21,3,21,0.08
2013-4-21,61.1,51.7,43.3,43.4,41.1,38.5,93,69,46,30.52,30.31,23,6,23,0.00
2013-4-22,59.9,49.5,38.6,46.2,39.7,32.8,86,70,47,30.51,30.29,19,7,19,0.00
2013-4-23,68.8,55.2,47.5,52.2,48.0,44.9,92,78,53,30.31,30.17,12,3,15,0.00
2013-4-24,76.8,63.7,49.0,56.7,53.3,47.5,96,71,47,30.20,30.01,22,3,22,0.00
2013-4-25,72.6,62.8,55.2,57.7,48.3,40.7,86,61,36,30.30,30.05,13,2,13,0.00
2013-4-26,73.0,61.7,53.6,53.0,43.9,33.2,95,58,25,30.45,30.30,18,2,18,0.00
2013-4-27,73.1,63.2,52.8,52.4,46.0,39.7,79,56,33,30.41,30.29,9,1,9,0.00
2013-4-28,62.9,58.8,55.3,56.0,50.7,43.3,96,75,61,30.30,30.13,10,2,10,0.70
2013-4-29,74.1,63.9,55.6,64.7,60.2,54.5,97,88,65,30.14,29.99,11,1,11,1.16
2013-4-30,65.8,62.1,58.0,60.9,59.3,55.1,97,91,79,30.20,30.02,12,3,12,0.00
2013-5-1,61.3,59.2,58.1,57.9,56.6,55.5,95,91,86,30.34,30.18,19,6,19,0.00
2013-5-2,64.1,59.2,56.3,58.2,56.0,52.7,95,89,80,30.35,30.28,25,6,25,0.00
2013-5-3,69.5,58.9,51.1,55.3,50.5,43.7,93,75,52,30.29,30.19,24,8,24,0.00
2013-5-4,64.7,55.8,49.9,53.3,49.0,44.2,89,78,62,30.23,30.09,25,10,25,0.00
2013-5-5,60.9,55.9,50.3,57.0,52.1,46.9,91,87,82,30.12,30.00,24,10,26,0.00
2013-5-6,73.0,59.4,56.9,65.7,57.2,54.1,96,92,73,30.03,29.85,21,7,22,1.06
2013-5-7,71.6,60.1,52.4,58.3,52.4,47.6,97,78,44,29.98,29.88,13,2,14,0.00
2013-5-8,55.6,54.7,53.7,52.1,51.8,51.3,93,90,88,29.99,29.96,0,0,0,0.00
2013-5-13,54.2,53.3,51.9,42.9,41.1,40.1,69,63,59,30.20,30.18,3,1,4,0.00
2013-5-14,72.1,58.8,42.3,44.6,39.7,32.7,89,53,30,30.30,30.12,11,2,18,0.00
2013-5-15,88.2,70.1,55.1,63.3,54.5,42.7,82,60,39,30.12,29.93,11,3,15,0.25
2013-5-16,84.9,75.9,68.2,63.7,60.8,55.9,77,61,39,30.01,29.92,18,3,18,0.00
2013-5-17,89.5,77.4,66.3,65.9,62.4,58.3,89,63,38,30.10,30.00,9,2,9,0.00
2013-5-18,81.5,72.5,65.1,69.7,64.6,59.4,94,77,52,30.18,30.09,14,2,14,0.09
2013-5-19,79.4,70.6,67.0,70.4,67.0,65.2,97,89,67,30.18,30.08,16,1,16,0.35
2013-5-20,77.8,71.1,67.6,71.0,68.2,66.4,97,91,77,30.15,30.06,13,2,13,0.38
2013-5-21,83.6,73.3,68.6,74.3,69.2,67.1,96,88,66,30.08,29.98,11,2,11,0.13
2013-5-22,85.2,72.2,67.5,69.9,67.4,64.8,96,86,55,30.06,29.94,16,3,16,0.00
2013-5-23,81.3,72.1,68.9,71.5,68.4,66.2,96,89,65,29.99,29.85,13,2,13,0.51
2013-5-24,71.4,65.6,63.0,67.8,62.6,58.6,96,91,65,29.97,29.83,12,2,12,0.00
2013-5-25,66.6,61.0,57.5,52.9,50.2,43.8,81,68,55,30.23,30.18,2,0,3,0.00
2013-5-26,74.9,62.7,53.8,53.2,46.1,40.5,77,56,36,30.32,30.21,9,2,15,0.00
2013-5-27,81.8,66.3,54.2,58.0,51.4,45.9,87,62,32,30.32,30.19,10,1,17,0.00
2013-5-28,85.3,73.3,61.3,67.5,63.0,57.9,92,72,50,30.29,30.17,13,2,13,0.00
2013-5-29,86.5,75.1,64.0,66.0,64.1,61.9,94,71,48,30.28,30.18,12,2,12,0.00
2013-5-30,88.2,76.1,64.0,68.8,64.2,59.3,94,69,44,30.30,30.20,12,2,12,0.00
2013-5-31,88.7,77.6,66.9,69.8,66.9,63.8,95,72,47,30.25,30.12,13,2,13,0.00
2013-6-1,89.3,77.7,67.1,69.3,67.0,63.8,95,72,45,30.18,30.05,14,3,14,0.00
2013-6-2,88.5,77.4,68.2,69.6,67.1,63.8,93,73,45,30.10,29.92,11,3,19,0.00
2013-6-3,82.8,73.6,66.5,74.4,70.2,64.5,96,89,70,29.99,29.85,14,2,14,0.64
2013-6-4,79.0,72.0,65.3,66.9,64.6,61.3,96,79,60,30.12,29.95,23,4,23,0.01
2013-6-5,81.6,72.5,64.1,64.1,60.3,56.0,92,68,43,30.16,30.03,17,5,17,0.00
2013-6-6,76.3,71.1,66.8,72.1,66.1,59.1,96,85,63,30.07,29.86,13,4,16,0.78
2013-6-7,77.3,71.3,69.1,74.8,69.8,67.9,97,95,90,29.88,29.46,17,4,17,2.81
2013-6-8,84.3,74.4,68.2,72.6,69.7,67.2,97,86,64,30.12,29.85,12,2,12,0.11
2013-6-9,88.4,77.4,69.2,74.3,70.3,67.5,96,80,56,30.19,30.08,11,1,11,0.12
2013-6-10,82.1,74.9,71.4,76.4,72.2,69.4,96,91,76,30.13,29.93,21,3,21,1.59
2013-6-11,85.1,76.3,69.9,70.5,68.0,64.9,94,77,52,29.99,29.92,16,4,16,0.00
2013-6-12,89.8,78.2,68.7,74.9,68.2,64.7,89,73,57,30.01,29.88,14,3,14,0.00
2013-6-13,95.1,80.5,69.6,76.7,71.3,62.7,92,76,42,29.89,29.63,17,4,17,0.11
2013-6-14,80.0,69.2,63.5,66.5,61.1,56.6,89,77,47,30.04,29.75,11,2,11,0.00
2013-6-15,84.8,73.1,61.6,64.1,60.5,56.9,88,67,44,30.16,30.04,12,2,12,0.00
2013-6-16,86.3,76.1,64.1,69.1,63.4,56.3,79,65,54,30.17,30.03,18,3,18,0.00
2013-6-17,86.7,76.2,70.3,72.8,67.7,64.1,89,75,56,30.07,29.95,10,2,11,0.00
2013-6-18,85.2,74.9,69.3,73.6,70.1,67.5,96,86,66,30.00,29.78,16,2,16,1.60
2013-6-19,79.1,72.6,66.5,68.8,66.5,64.0,96,82,64,30.15,29.89,16,3,16,0.00
2013-6-20,80.8,72.5,64.6,66.6,62.4,55.7,95,72,53,30.27,30.14,19,4,19,0.00
2013-6-21,81.8,72.1,59.2,67.7,59.1,48.9,90,65,39,30.28,30.20,16,4,16,0.00
2013-6-22,77.8,72.6,69.6,71.4,69.2,67.5,95,89,77,30.23,30.14,16,4,16,0.03
2013-6-23,86.8,75.6,69.0,75.2,71.0,67.8,96,86,64,30.24,30.15,10,1,10,0.13
2013-6-24,85.3,76.8,71.0,76.2,72.5,69.5,97,87,70,30.24,30.12,11,2,12,0.02
2013-6-25,87.4,75.4,69.9,76.0,70.9,68.3,95,86,64,30.17,30.04,16,2,16,0.10
2013-6-26,87.5,73.0,68.8,76.2,70.2,65.8,97,92,65,30.07,29.93,16,2,16,0.23
2013-6-27,89.9,76.6,68.0,76.7,71.6,66.5,97,85,57,29.95,29.75,15,3,15,0.01
2013-6-28,90.9,79.1,70.6,75.8,72.1,68.6,96,81,55,29.78,29.61,13,3,27,0.83
2013-6-29,85.6,76.3,68.8,75.0,71.6,67.8,98,86,66,29.76,29.64,26,2,26,0.76
2013-6-30,85.9,76.7,71.4,75.7,72.4,68.3,96,87,68,29.90,29.75,13,2,15,0.22
2013-7-1,83.1,75.5,70.5,76.4,72.1,69.0,97,89,74,30.03,29.87,17,2,17,1.34
2013-7-2,77.7,73.4,71.1,74.1,71.9,69.2,96,95,88,30.22,30.02,11,2,11,0.76
2013-7-3,85.6,77.5,73.2,76.7,73.8,70.9,97,89,71,30.28,30.19,12,2,12,0.00
2013-7-4,89.5,80.1,73.3,76.6,72.8,68.5,96,80,52,30.31,30.21,17,2,17,0.01
2013-7-5,90.5,80.2,72.4,76.2,73.2,70.9,96,81,58,30.31,30.19,11,2,11,0.00
2013-7-6,89.8,79.4,72.6,74.9,72.7,69.6,97,81,57,30.28,30.15,10,2,10,0.00
2013-7-7,90.3,79.4,70.1,74.9,72.2,68.6,96,80,59,30.23,30.09,10,2,10,0.00
2013-7-8,87.4,77.9,72.4,78.1,73.3,69.2,94,86,69,30.20,30.12,13,2,15,0.05
2013-7-9,86.9,76.5,71.5,77.9,73.5,69.5,96,91,66,30.19,30.10,26,2,26,0.38
2013-7-10,85.6,77.2,73.4,78.7,74.2,72.1,96,91,73,30.14,29.98,18,2,18,0.69
2013-7-11,83.8,75.0,71.9,75.2,72.2,70.7,97,91,75,30.02,29.91,13,2,13,0.37
2013-7-12,75.4,72.1,71.1,73.2,70.9,68.9,97,96,88,30.06,29.90,16,2,16,0.26
2013-7-13,77.6,73.0,70.8,75.4,71.5,69.5,97,95,89,30.20,30.04,18,3,18,0.50
2013-7-14,87.9,77.2,70.7,77.3,72.8,69.8,97,87,62,30.33,30.20,16,4,16,0.07
2013-7-15,90.1,79.8,71.7,75.4,72.4,69.9,97,80,56,30.35,30.27,8,2,10,0.01
2013-7-16,93.8,80.9,72.4,75.4,72.3,68.5,94,77,52,30.31,30.20,20,2,20,0.31
2013-7-17,91.8,83.0,74.7,77.6,73.8,70.2,95,76,52,30.25,30.13,14,2,14,0.00
2013-7-18,96.3,83.4,76.1,78.2,75.6,73.6,95,79,51,30.17,30.06,9,1,9,0.00
2013-7-19,90.8,82.3,74.5,76.8,74.5,71.3,95,79,56,30.13,30.01,12,2,12,0.00
2013-7-20,89.0,80.4,74.7,75.9,73.6,72.1,92,81,61,30.07,29.95,13,3,13,0.00
2013-7-21,88.6,76.7,71.6,76.9,72.4,69.9,96,87,65,30.03,29.93,13,2,15,1.67
2013-7-22,88.1,77.8,71.9,77.2,73.4,71.0,97,87,69,29.99,29.85,15,2,15,0.00
2013-7-23,89.0,80.0,73.5,77.7,73.4,71.6,94,81,63,29.89,29.75,13,3,13,0.24
2013-7-24,93.8,80.5,70.5,75.2,71.6,63.7,95,76,45,29.87,29.75,16,2,16,1.28
2013-7-25,81.0,73.7,70.4,70.9,69.6,67.4,96,87,70,30.06,29.83,10,2,10,0.06
2013-7-26,87.8,75.3,64.5,68.0,64.9,60.7,96,73,45,30.14,30.05,13,2,13,0.00
2013-7-27,87.3,75.6,68.8,73.4,69.2,67.0,96,82,54,30.09,29.97,10,2,15,0.75
2013-7-28,87.8,77.5,70.1,74.1,71.1,68.2,97,82,56,30.04,29.95,12,2,12,0.01
2013-7-29,87.3,77.7,70.9,72.6,70.1,68.2,96,79,55,30.18,30.02,7,1,7,0.08
2013-7-30,89.0,77.2,66.3,70.8,66.6,61.7,92,71,46,30.25,30.16,13,1,13,0.00
2013-7-31,83.8,77.2,70.6,74.7,71.7,68.2,95,83,69,30.18,30.03,14,1,14,0.39
2013-8-1,83.9,74.5,70.5,77.0,71.3,68.7,97,90,72,30.05,29.89,8,1,9,0.47
2013-8-2,89.6,79.4,70.2,74.5,71.8,68.7,96,79,56,30.05,29.92,10,1,10,0.00
2013-8-3,89.1,79.4,72.5,77.3,73.7,70.2,96,84,58,30.05,29.93,13,2,13,0.74
2013-8-4,77.1,73.5,72.0,72.9,71.7,70.9,97,94,83,30.00,29.91,9,1,9,0.01
2013-8-11,91.5,83.0,71.9,77.6,74.8,70.8,97,77,60,30.14,30.03,8,2,11,0.00
2013-8-12,92.5,82.7,74.8,77.2,74.0,69.9,96,77,50,30.07,29.96,8,2,11,0.67
2013-8-13,88.5,80.0,73.0,78.9,74.8,71.3,96,85,66,29.99,29.79,15,2,17,0.63
2013-8-14,74.6,72.7,64.9,72.6,67.6,60.0,96,84,74,30.12,29.85,13,3,13,0.00
2013-8-15,75.0,65.0,61.4,60.7,58.2,56.3,87,79,54,30.19,30.10,18,2,18,0.00
2013-8-16,70.5,66.5,61.6,63.3,60.7,57.4,90,82,65,30.21,30.12,11,2,11,0.00
2013-8-17,72.7,68.4,65.2,71.1,66.2,61.2,97,93,85,30.20,30.14,11,3,11,0.30
2013-8-18,83.5,74.3,69.3,72.9,69.8,66.5,97,87,67,30.24,30.15,13,3,13,0.01
2013-8-19,74.2,69.7,67.1,70.4,67.8,65.4,96,94,87,30.23,30.12,5,1,8,0.28
2013-8-20,84.2,75.1,70.4,74.4,71.1,69.1,97,88,71,30.22,30.14,9,1,9,0.00
2013-8-21,87.7,75.5,70.5,76.9,72.1,68.9,97,90,67,30.26,30.14,15,1,15,0.05
2013-8-22,88.3,78.1,69.9,76.4,72.2,69.0,98,83,61,30.19,30.02,11,2,11,0.01
2013-8-23,88.2,77.6,70.1,74.7,71.4,68.3,97,82,60,30.08,29.95,9,2,12,0.00
2013-8-24,81.3,73.1,65.5,68.3,62.4,57.5,93,71,47,30.33,30.08,16,5,16,0.00
2013-8-25,78.7,70.1,62.1,63.9,60.3,53.2,94,73,43,30.42,30.32,19,4,19,0.00
2013-8-26,82.8,69.5,56.7,63.6,58.5,53.1,96,72,38,30.36,30.15,10,1,10,0.00
2013-8-27,87.3,75.3,64.7,73.4,66.2,56.9,91,74,58,30.17,29.99,10,2,10,0.00
2013-8-28,84.3,77.6,70.8,76.3,73.0,69.2,96,86,71,30.02,29.91,9,1,9,0.00
2013-8-29,81.7,77.2,75.7,74.1,73.3,72.4,90,88,77,29.95,29.87,11,4,11,0.00
2013-8-30,88.6,76.0,66.4,70.7,67.5,64.0,96,77,47,30.09,29.97,9,2,11,0.00
2013-8-31,88.9,76.2,67.5,74.6,69.7,66.0,97,82,57,30.01,29.90,8,1,10,0.00
2013-9-1,91.0,79.0,70.6,77.0,72.8,69.3,96,83,58,29.94,29.80,18,2,18,1.41
2013-9-2,88.3,77.8,70.4,76.4,72.9,69.2,97,86,62,29.92,29.83,10,2,10,0.00
2013-9-3,85.6,77.5,72.0,77.7,72.9,68.4,95,86,69,29.97,29.82,9,1,9,0.12
2013-9-4,88.7,76.4,68.2,73.6,70.3,65.1,96,82,58,30.11,29.97,13,2,13,0.00
2013-9-5,88.8,77.0,68.1,72.8,67.8,60.8,97,76,41,30.12,30.05,8,1,9,0.00
2013-9-6,81.8,72.5,66.6,64.9,62.5,58.2,90,72,50,30.19,30.09,13,2,13,0.00
2013-9-7,84.5,72.3,61.6,66.8,62.5,59.3,92,74,48,30.17,30.01,8,1,8,0.00
2013-9-8,90.3,75.4,64.7,67.7,63.9,59.5,91,70,38,30.02,29.93,5,1,6,0.00
2013-9-9,87.0,76.8,65.7,71.4,67.7,63.3,93,75,53,30.18,30.02,15,2,15,0.00
2013-9-10,91.5,78.8,68.3,72.5,69.0,66.0,97,75,46,30.26,30.17,9,1,9,0.00
2013-9-11,90.8,78.1,67.9,72.8,68.6,64.2,94,75,42,30.24,30.10,9,1,9,0.00
2013-9-12,90.2,77.2,69.3,72.5,69.5,67.0,94,79,53,30.11,29.83,13,2,13,0.28
2013-9-13,85.3,73.3,69.3,70.6,67.3,56.0,95,83,47,29.91,29.78,11,2,11,0.56
2013-9-14,78.5,67.8,60.5,57.9,53.1,47.8,85,60,45,30.17,29.90,17,4,17,0.00
2013-9-15,82.3,68.9,57.5,63.4,58.7,53.7,93,72,49,30.28,30.15,11,2,11,0.00
2013-9-16,85.8,74.4,67.1,72.0,65.4,61.1,96,76,45,30.21,30.06,16,2,16,0.54
2013-9-17,74.7,67.8,60.5,61.8,55.8,51.6,83,67,45,30.34,30.21,23,5,23,0.00
2013-9-18,74.0,62.5,52.7,56.4,52.8,50.0,92,73,46,30.34,30.21,10,2,11,0.00
2013-9-19,80.7,61.8,54.5,63.2,56.1,52.0,94,83,53,30.23,30.12,8,1,8,0.00
2013-9-20,68.8,66.5,63.4,65.9,62.9,58.5,96,89,73,30.13,30.00,9,2,9,0.21
2013-9-21,79.8,70.6,65.1,71.7,67.8,63.9,97,91,74,30.01,29.76,10,1,10,0.52
2013-9-22,76.3,68.3,62.5,68.4,61.7,57.6,97,81,57,29.93,29.72,17,4,17,2.43
2013-9-23,73.6,63.9,56.2,58.5,54.6,51.0,93,73,52,30.11,29.93,10,2,11,0.00
2013-9-24,59.4,58.1,55.6,55.8,54.5,52.8,93,88,85,30.11,30.11,5,2,5,0.00
2013-9-25,72.3,64.4,55.0,62.4,58.6,53.6,97,82,62,30.00,29.90,8,1,11,0.00
2013-9-26,75.7,67.6,59.9,62.3,58.1,50.5,94,74,42,30.06,29.90,11,3,15,0.00
2013-9-27,73.1,64.1,57.0,61.0,56.9,54.4,95,79,55,30.22,30.06,16,4,16,0.00
2013-9-28,72.2,62.8,54.1,58.0,55.2,52.3,95,78,55,30.30,30.20,17,3,17,0.00
2013-9-29,73.9,63.0,53.4,58.4,55.0,52.3,96,77,51,30.20,30.07,16,2,16,0.00
2013-9-30,76.9,63.1,54.3,61.0,56.2,52.4,97,81,45,30.14,30.04,8,1,10,0.00
2013-10-1,82.8,67.8,54.9,63.8,58.4,52.9,96,74,47,30.17,30.06,9,1,9,0.00
2013-10-2,86.1,71.5,61.8,64.8,60.8,58.0,89,71,45,30.16,30.08,8,1,11,0.00
2013-10-3,85.9,72.7,61.3,67.6,63.3,58.5,94,74,49,30.17,30.09,9,1,9,0.00
2013-10-4,86.5,73.0,62.8,69.3,64.5,61.3,96,77,48,30.17,30.08,10,1,10,0.00
2013-10-5,70.5,67.2,65.0,64.8,63.9,62.9,94,89,80,30.13,30.10,4,0,4,0.00
2013-10-6,85.6,73.0,65.2,72.5,68.1,63.7,97,86,61,30.10,29.96,9,1,14,0.00
2013-10-7,75.3,71.3,64.7,72.5,69.5,60.7,96,94,86,30.01,29.87,14,2,14,0.12
2013-10-8,65.3,60.0,55.2,60.8,53.1,47.0,93,78,62,30.23,29.99,23,6,23,0.56
2013-10-9,61.9,58.5,55.0,56.4,53.8,51.0,95,84,77,30.21,30.11,16,6,16,0.00
2013-10-10,61.1,56.8,53.8,59.3,54.9,52.0,95,93,91,30.11,29.97,17,5,17,0.03
2013-10-11,68.1,62.5,58.7,62.5,59.8,57.6,96,91,80,30.01,29.94,10,2,10,0.00
2013-10-12,68.0,64.4,61.6,64.6,61.9,59.3,95,92,87,30.11,29.98,7,2,7,0.00
2013-10-13,67.3,64.4,62.0,64.1,62.6,61.1,97,94,89,30.22,30.10,9,4,9,0.08
2013-10-14,65.8,63.0,58.0,62.5,60.9,56.6,97,93,87,30.26,30.20,14,5,14,0.00
2013-10-15,70.3,61.8,54.1,62.5,57.6,53.0,96,87,72,30.23,30.09,10,3,12,0.00
2013-10-16,70.8,65.1,61.9,63.6,61.9,60.5,96,90,78,30.10,30.00,4,1,4,0.00
2013-10-17,76.5,67.7,60.3,66.8,63.2,58.9,96,86,67,30.01,29.88,11,2,11,0.00
2013-10-18,67.3,63.4,58.7,64.8,55.5,47.9,95,76,59,30.08,29.91,10,2,10,0.00
2013-10-19,68.9,64.0,60.9,65.2,61.0,56.4,96,90,83,30.01,29.86,7,1,7,0.00
2013-10-20,66.1,56.8,47.3,59.4,48.0,41.2,95,74,48,30.16,29.94,15,2,15,0.00
2013-10-21,69.8,55.4,42.4,51.2,46.7,40.8,96,75,44,30.21,30.05,8,1,8,0.00
2013-10-22,63.3,59.2,53.9,59.4,54.8,48.6,95,86,78,30.06,29.85,8,1,8,0.00
2013-10-23,66.6,59.1,48.0,58.1,49.3,34.3,97,73,37,30.05,29.73,17,3,20,0.00
2013-10-24,58.9,48.0,37.6,41.5,36.5,31.5,88,66,42,30.24,30.04,11,2,13,0.00
2013-10-25,56.4,47.2,38.5,38.1,33.0,28.5,87,59,36,30.42,30.23,12,3,12,0.00
2013-10-26,59.6,45.6,31.9,37.4,33.5,29.6,93,66,38,30.42,30.14,15,2,15,0.00
2013-10-27,66.0,52.9,43.6,44.2,40.0,36.2,85,63,42,30.18,30.10,12,2,12,0.00
2013-10-28,65.8,56.9,48.7,56.3,51.2,45.0,95,82,65,30.31,30.16,4,0,4,0.00
2013-10-29,73.5,59.7,50.7,58.0,54.1,49.3,97,83,55,30.38,30.29,6,1,6,0.00
2013-10-30,73.5,63.6,53.9,60.4,57.1,52.3,97,81,58,30.34,30.20,9,1,9,0.00
2013-10-31,74.8,64.7,55.6,64.0,57.9,54.4,96,80,55,30.24,29.98,14,2,14,0.00
2013-11-1,67.6,67.4,67.1,64.9,64.6,64.1,92,91,90,29.98,29.89,13,3,13,0.00
2013-11-10,72.6,56.8,44.2,43.5,37.1,29.6,74,50,26,30.28,30.11,11,3,15,0.00
2013-11-11,61.5,49.3,35.4,36.4,31.1,29.0,87,52,31,30.41,30.20,10,2,15,1.19
2013-11-12,60.9,44.8,34.7,39.6,33.7,19.2,90,65,42,30.46,30.11,22,3,22,0.00
2013-11-13,45.2,35.3,28.1,25.6,19.9,16.6,84,55,33,30.59,30.46,16,3,16,0.00
2013-11-14,57.7,36.9,30.3,26.5,23.2,20.9,77,60,26,30.54,30.40,13,2,13,0.00
2013-11-15,64.3,50.8,37.1,50.9,38.5,22.4,83,63,41,30.41,30.26,6,1,9,0.00
2013-11-16,71.2,59.5,53.5,58.9,54.8,48.4,95,85,65,30.31,30.23,8,2,8,0.00
2013-11-17,72.2,60.6,55.2,66.0,57.7,53.8,97,91,67,30.25,29.94,12,2,12,0.14
2013-11-18,76.0,67.0,55.5,67.1,55.2,32.0,96,69,39,29.99,29.82,33,3,33,0.03
2013-11-19,55.6,49.6,43.1,32.3,29.9,27.7,61,47,36,30.36,29.99,19,5,19,0.00
2013-11-20,51.9,45.1,38.9,39.7,33.7,29.0,83,65,54,30.49,30.36,19,6,19,0.00
2013-11-21,64.0,51.6,43.6,51.3,44.8,38.8,88,78,62,30.55,30.43,14,3,14,0.00
2013-11-22,71.1,60.7,49.8,61.7,56.0,47.8,96,85,71,30.44,30.13,14,2,14,0.00
2013-11-23,62.0,58.3,43.4,60.3,53.5,22.9,97,86,41,30.22,30.07,12,2,14,0.02
2013-11-24,43.4,35.8,28.0,25.2,15.2,2.3,53,43,24,30.61,30.21,18,6,18,0.00
2013-11-25,43.9,32.3,21.3,17.0,11.9,7.6,78,45,23,30.67,30.44,11,1,11,0.00
2013-11-26,66.3,47.8,36.7,65.4,40.4,15.4,97,77,41,30.44,29.61,18,5,18,0.64
2013-11-27,66.2,42.5,30.1,65.3,40.7,20.1,97,94,66,30.22,29.54,14,4,17,1.22
2013-11-28,46.2,33.7,24.9,25.0,21.2,17.1,79,61,37,30.56,30.22,12,2,12,0.00
2013-11-29,50.9,38.7,28.1,28.7,25.8,22.8,85,62,39,30.69,30.54,15,3,15,0.00
2013-11-30,49.3,38.7,30.9,35.3,30.3,24.8,84,72,57,30.70,30.43,14,4,16,0.00
2013-12-1,60.2,41.6,32.2,43.3,35.0,29.9,93,79,45,30.43,30.08,8,1,8,0.00
2013-12-2,60.4,49.1,40.2,45.4,42.0,37.3,92,78,49,30.08,29.88,7,0,7,0.00
2013-12-3,55.9,48.3,40.1,47.7,41.7,36.9,91,78,65,30.05,29.92,9,1,9,0.00
2013-12-4,64.1,56.8,52.2,58.1,52.9,46.9,96,87,78,30.15,30.03,8,1,8,0.00
2013-12-5,67.7,61.2,54.1,64.2,59.6,53.0,98,94,88,30.19,30.09,12,2,12,0.00
2013-12-6,77.5,70.1,64.5,65.7,64.0,62.1,94,82,65,30.13,30.02,22,5,22,0.00
2013-12-7,68.8,50.8,42.8,65.0,46.1,33.3,94,84,69,30.50,30.03,18,7,18,0.24
2013-12-8,42.8,36.1,33.7,33.8,32.8,30.6,96,88,66,30.52,30.35,20,6,20,0.10
2013-12-9,47.1,40.3,34.4,46.6,39.6,33.3,98,97,96,30.35,30.13,8,1,8,0.11
2013-12-10,48.7,44.6,31.3,48.1,42.4,27.7,98,92,67,30.39,29.96,15,2,15,0.53
2013-12-11,49.4,37.3,26.1,29.6,26.9,22.5,94,69,42,30.53,30.36,9,1,9,0.00
2013-12-12,44.7,35.9,28.0,29.4,25.6,14.5,83,68,30,30.48,30.33,12,2,12,0.00
2013-12-13,51.8,38.4,26.5,29.3,22.0,16.7,82,54,32,30.47,30.34,11,2,12,0.00
2013-12-14,47.2,42.8,39.5,44.2,36.1,26.6,97,79,51,30.37,29.83,17,3,17,0.76
2013-12-15,54.8,43.8,36.3,45.5,38.2,29.6,97,82,53,30.13,29.76,13,3,13,0.03
2013-12-16,57.4,43.4,32.3,37.0,32.8,28.0,84,68,43,30.24,30.13,12,2,12,0.00
2013-12-17,62.2,48.8,35.6,39.9,36.6,32.9,91,65,39,30.18,29.94,24,3,24,0.00
2013-12-18,51.4,42.8,37.2,38.4,23.9,18.2,74,48,28,30.36,30.08,13,3,13,0.00
2013-12-19,62.6,47.3,34.2,32.7,26.3,22.2,66,46,25,30.40,30.29,16,3,16,0.00
2013-12-20,67.2,53.7,44.0,55.8,45.4,32.8,89,74,51,30.31,30.17,11,3,16,0.00
2013-12-21,72.8,61.7,51.1,65.8,57.3,49.3,95,86,70,30.21,30.10,17,3,17,0.00
2013-12-22,77.1,69.9,63.6,68.3,65.9,62.2,96,87,67,30.14,30.07,17,5,19,0.18
2013-12-23,69.5,61.6,47.2,67.6,59.7,42.3,97,93,84,30.20,30.03,14,4,18,1.65
2013-12-24,47.4,41.9,31.1,42.3,31.3,15.9,92,67,49,30.51,30.15,18,5,18,0.00
2013-12-25,40.9,31.4,25.3,21.9,15.0,11.2,76,52,32,30.62,30.46,17,3,17,0.00
2013-12-26,52.0,38.1,30.2,35.9,30.2,21.6,89,74,53,30.46,30.32,7,1,7,0.00
2013-12-27,52.2,41.3,33.8,28.0,24.0,20.9,70,51,33,30.52,30.42,8,2,8,0.00
2013-12-28,60.3,45.4,30.0,33.8,28.8,23.5,85,55,29,30.47,30.21,7,1,7,0.00
2013-12-29,64.0,51.6,44.6,63.4,48.8,32.7,98,91,50,30.21,29.73,18,5,24,1.71
2013-12-30,55.4,47.1,39.5,45.4,41.6,36.4,97,82,59,30.19,29.97,9,1,9,0.01
2013-12-31,50.5,44.4,38.6,37.4,32.6,24.2,85,65,36,30.42,30.16,14,3,14,0.00
2014-1-1,50.5,41.6,33.8,35.8,28.7,24.3,80,62,38,30.49,30.21,10,1,10,0.00
2014-1-2,47.6,44.6,40.5,46.5,40.6,32.0,96,86,64,30.22,29.63,14,2,14,0.27